Blue Ridge Observed Data For Previous 48 Hours

Caption
Day and Hour Reservoir Elevation (behind dam)* Tailwater Elevation (below dam)* Average Hourly Discharge*
4/18/2018 2 AM EDT 1,682.27 1,540.62 155
4/18/2018 3 AM EDT 1,682.31 1,540.62 155
4/18/2018 4 AM EDT 1,682.25 1,540.62 155
4/18/2018 5 AM EDT 1,682.30 1,540.56 167
4/18/2018 6 AM EDT 1,682.29 1,543.08 1,490
4/18/2018 7 AM EDT 1,682.27 1,543.17 1,561
4/18/2018 8 AM EDT 1,682.23 1,543.17 1,558
4/18/2018 9 AM EDT 1,682.17 1,543.18 1,559
4/18/2018 10 AM EDT 1,682.14 1,543.17 1,554
4/18/2018 11 AM EDT 1,682.14 1,543.17 1,556
4/18/2018 12 PM EDT 1,682.11 1,540.73 234
4/18/2018 1 PM EDT 1,682.14 1,540.62 153
4/18/2018 2 PM EDT 1,682.12 1,540.62 153
4/18/2018 3 PM EDT 1,682.12 1,540.61 153
4/18/2018 4 PM EDT 1,682.11 1,540.62 153
4/18/2018 5 PM EDT 1,682.19 1,540.57 157
4/18/2018 6 PM EDT 1,682.18 1,543.04 1,466
4/18/2018 7 PM EDT 1,682.10 1,543.14 1,545
4/18/2018 8 PM EDT 1,682.13 1,543.14 1,547
4/18/2018 9 PM EDT 1,682.07 1,543.13 1,542
4/18/2018 10 PM EDT 1,682.09 1,543.13 1,546
4/18/2018 11 PM EDT 1,682.10 1,543.12 1,539
4/19/2018 12 AM EDT 1,682.05 1,540.72 232
4/19/2018 1 AM EDT 1,682.11 1,540.62 153
4/19/2018 2 AM EDT 1,682.10 1,540.62 153
4/19/2018 3 AM EDT 1,682.12 1,540.62 153
4/19/2018 4 AM EDT 1,682.15 1,540.62 154
4/19/2018 5 AM EDT 1,682.15 1,540.61 153
4/19/2018 6 AM EDT 1,682.13 1,543.04 1,483
4/19/2018 7 AM EDT 1,682.10 1,543.18 1,561
4/19/2018 8 AM EDT 1,682.06 1,543.18 1,562
4/19/2018 9 AM EDT 1,682.04 1,543.18 1,559
4/19/2018 10 AM EDT 1,682.03 1,543.18 1,563
4/19/2018 11 AM EDT 1,682.00 1,543.19 1,561
4/19/2018 12 PM EDT 1,682.00 1,540.74 256
4/19/2018 1 PM EDT 1,682.01 1,540.63 155
4/19/2018 2 PM EDT 1,682.02 1,540.62 155
4/19/2018 3 PM EDT 1,682.01 1,540.61 155
4/19/2018 4 PM EDT 1,682.00 1,543.06 1,474
4/19/2018 5 PM EDT 1,681.99 1,543.15 1,551
4/19/2018 6 PM EDT 1,681.95 1,543.17 1,555
4/19/2018 7 PM EDT 1,681.92 1,543.16 1,551
4/19/2018 8 PM EDT 1,681.92 1,543.16 1,552
4/19/2018 9 PM EDT 1,681.90 1,543.16 1,552
4/19/2018 10 PM EDT 1,681.87 1,543.15 1,555
4/19/2018 11 PM EDT 1,681.83 1,543.16 1,553
4/20/2018 12 AM EDT 1,681.84 1,540.73 266
4/20/2018 1 AM EDT 1,681.92 1,540.62 152
4/20/2018 2 AM EDT 1,681.88 1,540.61 152
4/20/2018 3 AM EDT 1,681.94 1,540.62 152
4/20/2018 4 AM EDT 1,681.95 1,540.63 152
4/20/2018 5 AM EDT 1,681.94 1,540.62 152
4/20/2018 6 AM EDT 1,681.97 1,540.57 155
4/20/2018 7 AM EDT 1,681.94 1,543.10 1,541
4/20/2018 8 AM EDT 1,681.92 1,543.17 1,553
4/20/2018 9 AM EDT 1,681.83 1,543.17 1,554
4/20/2018 10 AM EDT 1,681.86 1,543.16 1,549
4/20/2018 11 AM EDT 1,681.82 1,543.15 1,553
4/20/2018 12 PM EDT 1,681.78 1,543.15 1,549
4/20/2018 1 PM EDT 1,681.77 1,540.73 250
4/20/2018 2 PM EDT 1,681.71 1,540.62 153
4/20/2018 3 PM EDT 1,681.74 1,540.61 153
4/20/2018 4 PM EDT 1,681.79 1,540.61 153
4/20/2018 5 PM EDT 1,681.78 1,540.61 153
4/20/2018 6 PM EDT 1,681.80 1,540.57 157
4/20/2018 7 PM EDT 1,681.78 1,543.07 1,492
4/20/2018 8 PM EDT 1,681.75 1,543.16 1,554

Elevations are in feet above sea level. Discharges are in cubic feet per second and are reported at the end of the hour.